createdAt,value
2018-08-31T00:00:14.318Z,19.74
2018-08-31T00:02:48.919Z,19.77
2018-08-31T00:05:45.685Z,19.78
2018-08-31T00:10:37.774Z,19.68
2018-08-31T00:13:06.153Z,19.68
2018-08-31T00:15:34.296Z,19.66
2018-08-31T00:18:02.499Z,19.65
2018-08-31T00:20:30.800Z,19.51
2018-08-31T00:22:59.199Z,19.62
2018-08-31T00:26:08.040Z,19.62
2018-08-31T00:28:48.292Z,19.64
2018-08-31T00:31:37.587Z,19.46
2018-08-31T00:34:17.877Z,19.29
2018-08-31T00:36:59.434Z,19.25
2018-08-31T00:39:37.128Z,19.37
2018-08-31T00:44:20.697Z,19.32
2018-08-31T00:46:48.861Z,19.38
2018-08-31T00:49:17.030Z,19.40
2018-08-31T00:51:45.184Z,19.40
2018-08-31T00:54:13.445Z,19.36
2018-08-31T00:56:41.806Z,19.07
2018-08-31T00:59:09.948Z,19.21
2018-08-31T01:01:38.077Z,19.16
2018-08-31T01:04:06.210Z,19.15
2018-08-31T01:06:34.350Z,19.20
2018-08-31T01:09:02.690Z,19.16
2018-08-31T01:11:30.834Z,19.01
2018-08-31T01:14:01.827Z,18.75
2018-08-31T01:16:30.064Z,18.85
2018-08-31T01:18:58.333Z,18.92
2018-08-31T01:21:26.663Z,18.98
2018-08-31T01:23:54.828Z,18.89
2018-08-31T01:26:23.109Z,19.01
2018-08-31T01:28:51.268Z,18.99
2018-08-31T01:31:19.414Z,19.00
2018-08-31T01:33:47.600Z,18.95
2018-08-31T01:36:15.793Z,18.91
2018-08-31T01:38:44.296Z,18.82
2018-08-31T01:41:12.503Z,18.89
2018-08-31T01:43:40.664Z,18.84
2018-08-31T01:46:08.900Z,18.69
2018-08-31T01:48:37.043Z,18.71
2018-08-31T01:51:10.579Z,18.77
2018-08-31T01:53:38.768Z,18.66
2018-08-31T01:56:06.993Z,18.61
2018-08-31T01:58:35.263Z,18.59
2018-08-31T02:01:03.655Z,18.35
2018-08-31T02:03:31.820Z,18.58
2018-08-31T02:05:59.943Z,18.66
2018-08-31T02:08:28.089Z,18.65
2018-08-31T02:10:56.213Z,18.46
2018-08-31T02:13:24.364Z,18.50
2018-08-31T02:15:52.519Z,18.45
2018-08-31T02:18:20.700Z,18.41
2018-08-31T02:20:48.924Z,18.43
2018-08-31T02:23:17.103Z,18.50
2018-08-31T02:25:45.257Z,18.36
2018-08-31T02:30:48.791Z,18.21
2018-08-31T02:33:16.867Z,18.34
2018-08-31T02:35:45.042Z,18.31
2018-08-31T02:38:13.162Z,18.15
2018-08-31T02:40:41.320Z,18.27
2018-08-31T02:43:09.429Z,18.28
2018-08-31T02:45:37.565Z,18.24
2018-08-31T02:48:05.881Z,18.20
2018-08-31T02:50:33.970Z,18.21
2018-08-31T02:53:02.095Z,18.02
2018-08-31T02:55:30.226Z,18.15
2018-08-31T02:57:58.343Z,18.18
2018-08-31T03:00:26.443Z,18.11
2018-08-31T03:02:54.524Z,18.10
2018-08-31T03:05:22.619Z,18.22
2018-08-31T03:07:50.818Z,18.24
2018-08-31T03:10:18.940Z,18.23
2018-08-31T03:12:47.167Z,18.22
2018-08-31T03:15:15.462Z,18.03
2018-08-31T03:17:44.148Z,17.98
2018-08-31T03:20:12.280Z,18.00
2018-08-31T03:22:40.419Z,18.04
2018-08-31T03:25:08.772Z,18.06
2018-08-31T03:27:37.241Z,18.01
2018-08-31T03:30:05.402Z,17.94
2018-08-31T03:32:33.729Z,17.91
2018-08-31T03:35:01.811Z,17.91
2018-08-31T03:37:30.062Z,17.82
2018-08-31T03:39:58.379Z,17.92
2018-08-31T03:42:27.031Z,17.85
2018-08-31T03:44:55.123Z,17.81
2018-08-31T03:47:23.281Z,17.84
2018-08-31T03:49:51.383Z,17.79
2018-08-31T03:52:19.443Z,17.65
2018-08-31T03:54:47.745Z,17.75
2018-08-31T03:57:16.399Z,17.72
2018-08-31T03:59:44.487Z,17.71
2018-08-31T04:02:12.817Z,17.71
2018-08-31T04:04:40.903Z,17.69
2018-08-31T04:07:09.074Z,17.72
2018-08-31T04:09:37.656Z,17.57
2018-08-31T04:12:05.743Z,17.49
2018-08-31T04:14:34.119Z,17.36
2018-08-31T04:17:02.431Z,17.39
2018-08-31T04:19:30.729Z,17.18
2018-08-31T04:21:58.855Z,17.34
2018-08-31T04:24:26.966Z,17.51
2018-08-31T04:26:55.173Z,17.59
2018-08-31T04:29:23.226Z,17.62
2018-08-31T04:31:51.327Z,17.66
2018-08-31T04:34:19.388Z,17.65
2018-08-31T04:36:47.652Z,17.53
2018-08-31T04:39:15.803Z,17.55
2018-08-31T04:41:44.534Z,17.56
2018-08-31T04:44:12.810Z,17.61
2018-08-31T04:46:41.138Z,17.56
2018-08-31T04:49:09.197Z,17.53
2018-08-31T04:51:37.369Z,17.52
2018-08-31T04:54:05.460Z,17.43
2018-08-31T04:56:33.569Z,17.56
2018-08-31T04:59:01.756Z,17.47
2018-08-31T05:01:30.528Z,17.41
2018-08-31T05:03:58.639Z,17.42
2018-08-31T05:06:26.805Z,17.50
2018-08-31T05:08:54.945Z,17.46
2018-08-31T05:11:23.671Z,17.51
2018-08-31T05:13:51.843Z,17.56
2018-08-31T05:16:21.232Z,17.52
2018-08-31T05:18:49.346Z,17.48
2018-08-31T05:21:17.505Z,17.48
2018-08-31T05:23:45.811Z,17.48
2018-08-31T05:26:14.132Z,17.48
2018-08-31T05:28:42.294Z,17.57
2018-08-31T05:31:10.417Z,17.61
2018-08-31T05:33:38.562Z,17.59
2018-08-31T05:36:06.653Z,17.42
2018-08-31T05:38:34.826Z,17.71
2018-08-31T05:41:02.924Z,17.68
2018-08-31T05:43:31.605Z,17.58
2018-08-31T05:46:00.714Z,17.69
2018-08-31T05:48:28.935Z,17.72
2018-08-31T05:50:57.030Z,17.65
2018-08-31T05:53:25.208Z,17.69
2018-08-31T05:55:53.633Z,17.60
2018-08-31T05:58:22.170Z,17.80
2018-08-31T06:00:50.293Z,17.71
2018-08-31T06:03:18.411Z,17.88
2018-08-31T06:05:46.544Z,17.90
2018-08-31T06:08:14.670Z,18.02
2018-08-31T06:10:42.986Z,18.06
2018-08-31T06:13:11.602Z,18.09
2018-08-31T06:15:40.998Z,18.03
2018-08-31T06:18:09.617Z,18.11
2018-08-31T06:20:38.886Z,18.24
2018-08-31T06:23:07.051Z,18.20
2018-08-31T06:25:35.468Z,18.24
2018-08-31T06:28:03.832Z,18.16
2018-08-31T06:30:31.943Z,18.36
2018-08-31T06:33:01.054Z,18.31
2018-08-31T06:35:29.335Z,18.33
2018-08-31T06:37:57.493Z,18.39
2018-08-31T06:40:25.760Z,18.42
2018-08-31T06:42:54.327Z,18.50
2018-08-31T06:45:22.739Z,18.49
2018-08-31T06:47:50.886Z,18.37
2018-08-31T06:50:20.203Z,18.38
2018-08-31T06:52:48.869Z,18.27
2018-08-31T06:55:18.408Z,18.54
2018-08-31T06:57:48.039Z,18.64
2018-08-31T07:00:16.809Z,18.60
2018-08-31T07:02:45.033Z,18.66
2018-08-31T07:05:13.202Z,18.35
2018-08-31T07:07:42.215Z,18.37
2018-08-31T07:10:10.594Z,18.39
2018-08-31T07:12:39.197Z,18.44
2018-08-31T07:15:08.278Z,18.74
2018-08-31T07:17:37.119Z,18.84
2018-08-31T07:20:05.806Z,18.84
2018-08-31T07:22:33.946Z,18.82
2018-08-31T07:25:02.100Z,18.81
2018-08-31T07:32:28.669Z,18.69
2018-08-31T07:34:56.910Z,18.83
2018-08-31T07:37:25.746Z,18.96
2018-08-31T07:39:54.348Z,18.85
2018-08-31T07:42:22.521Z,18.86
2018-08-31T07:44:50.675Z,18.84
2018-08-31T07:47:18.855Z,18.87
2018-08-31T07:49:47.175Z,19.06
2018-08-31T07:52:17.490Z,19.13
2018-08-31T07:54:45.923Z,19.31
2018-08-31T07:57:14.372Z,19.41
2018-08-31T07:59:42.535Z,19.66
2018-08-31T08:02:10.642Z,19.75
2018-08-31T08:04:39.486Z,19.70
2018-08-31T08:07:08.582Z,20.15
2018-08-31T08:09:36.829Z,20.39
2018-08-31T08:12:05.557Z,20.34
2018-08-31T08:14:33.724Z,20.33
2018-08-31T08:17:02.313Z,20.39
2018-08-31T08:19:31.489Z,20.36
2018-08-31T08:21:59.752Z,20.21
2018-08-31T08:24:27.882Z,20.44
2018-08-31T08:26:56.094Z,20.52
2018-08-31T08:29:24.273Z,20.39
2018-08-31T08:31:52.909Z,20.31
2018-08-31T08:34:21.172Z,20.36
2018-08-31T08:36:49.318Z,20.52
2018-08-31T08:39:17.593Z,20.13
2018-08-31T08:41:45.764Z,20.45
2018-08-31T08:44:15.902Z,20.73
2018-08-31T08:46:44.001Z,20.52
2018-08-31T08:49:13.275Z,20.60
2018-08-31T08:51:41.410Z,20.65
2018-08-31T08:54:09.510Z,20.48
2018-08-31T08:56:37.641Z,20.64
2018-08-31T08:59:05.763Z,20.71
2018-08-31T09:01:33.895Z,20.81
2018-08-31T09:04:01.999Z,20.89
2018-08-31T09:06:30.119Z,20.92
2018-08-31T09:08:58.323Z,20.84
2018-08-31T09:11:26.627Z,20.83
2018-08-31T09:13:54.699Z,21.05
2018-08-31T09:16:22.902Z,21.13
2018-08-31T09:18:51.001Z,20.91
2018-08-31T09:21:19.229Z,20.89
2018-08-31T09:23:47.348Z,20.49
2018-08-31T09:26:15.987Z,20.84
2018-08-31T09:28:44.170Z,21.02
2018-08-31T09:31:15.343Z,21.27
2018-08-31T09:33:43.475Z,21.46
2018-08-31T09:36:12.349Z,21.94
2018-08-31T09:38:40.517Z,21.74
2018-08-31T09:41:08.767Z,22.16
2018-08-31T09:43:36.952Z,22.63
2018-08-31T09:46:05.520Z,22.87
2018-08-31T09:48:33.652Z,22.88
2018-08-31T09:51:02.091Z,22.92
2018-08-31T09:53:30.367Z,22.99
2018-08-31T09:55:58.525Z,22.71
2018-08-31T09:58:27.087Z,22.36
2018-08-31T10:00:59.391Z,22.46
2018-08-31T10:03:27.750Z,22.65
2018-08-31T10:05:56.716Z,22.85
2018-08-31T10:08:27.143Z,22.39
2018-08-31T10:10:55.288Z,21.93
2018-08-31T10:13:23.633Z,22.14
2018-08-31T10:15:51.707Z,22.56
2018-08-31T10:18:19.842Z,21.93
2018-08-31T10:20:48.025Z,22.18
2018-08-31T10:23:17.574Z,22.46
2018-08-31T10:25:45.697Z,22.51
2018-08-31T10:28:13.842Z,22.90
2018-08-31T10:30:41.958Z,23.13
2018-08-31T10:33:10.047Z,23.38
2018-08-31T10:35:38.223Z,23.71
2018-08-31T10:38:06.386Z,23.92
2018-08-31T10:40:34.516Z,23.74
2018-08-31T10:43:02.595Z,24.67
2018-08-31T10:45:30.774Z,25.16
2018-08-31T10:47:58.994Z,25.18
2018-08-31T10:50:54.512Z,24.20
2018-08-31T10:56:25.747Z,24.00
2018-08-31T10:58:53.898Z,23.42
2018-08-31T11:01:22.044Z,23.57
2018-08-31T11:03:50.179Z,23.77
2018-08-31T11:06:18.764Z,23.91
2018-08-31T11:08:46.936Z,23.76
2018-08-31T11:11:15.043Z,23.71
2018-08-31T11:13:43.232Z,24.02
2018-08-31T11:16:11.355Z,24.16
2018-08-31T11:18:39.611Z,24.49
2018-08-31T11:21:08.047Z,24.53
2018-08-31T11:23:36.207Z,24.49
2018-08-31T11:26:04.288Z,24.43
2018-08-31T11:28:32.530Z,23.90
2018-08-31T11:31:00.615Z,23.52
2018-08-31T11:33:28.700Z,23.76
2018-08-31T11:35:56.815Z,23.70
2018-08-31T11:38:24.947Z,23.57
2018-08-31T11:40:53.375Z,24.06
2018-08-31T11:43:21.500Z,24.06
2018-08-31T11:45:50.265Z,25.39
2018-08-31T11:48:19.298Z,27.25
2018-08-31T11:50:47.442Z,28.02
2018-08-31T11:53:15.562Z,29.10
2018-08-31T11:55:43.667Z,29.75
2018-08-31T11:58:11.796Z,30.14
2018-08-31T12:00:39.931Z,29.92
2018-08-31T12:03:08.243Z,30.89
2018-08-31T12:05:36.383Z,31.57
2018-08-31T12:08:04.512Z,31.19
2018-08-31T12:10:32.645Z,31.43
2018-08-31T12:13:01.011Z,32.53
2018-08-31T12:15:29.106Z,32.77
2018-08-31T12:17:57.286Z,33.57
2018-08-31T12:20:25.429Z,32.71
2018-08-31T12:22:53.676Z,31.24
2018-08-31T12:25:21.798Z,29.06
2018-08-31T12:27:49.983Z,27.50
2018-08-31T12:30:18.150Z,28.04
2018-08-31T12:32:46.280Z,28.80
2018-08-31T12:35:14.450Z,27.80
2018-08-31T12:37:42.567Z,27.46
2018-08-31T12:40:10.694Z,26.87
2018-08-31T12:42:45.562Z,26.59
2018-08-31T12:45:13.799Z,26.41
2018-08-31T12:47:41.911Z,26.26
2018-08-31T12:50:10.073Z,26.26
2018-08-31T12:52:38.192Z,25.87
2018-08-31T12:55:06.811Z,26.08
2018-08-31T12:57:34.968Z,25.85
2018-08-31T13:00:03.199Z,25.62
2018-08-31T13:02:32.169Z,25.49
2018-08-31T13:05:00.862Z,25.20
2018-08-31T13:07:28.983Z,25.34
2018-08-31T13:09:57.134Z,25.33
2018-08-31T13:12:25.506Z,25.34
2018-08-31T13:14:53.862Z,25.13
2018-08-31T13:17:21.979Z,24.85
2018-08-31T13:19:50.188Z,24.64
2018-08-31T13:22:18.337Z,24.74
2018-08-31T13:24:46.530Z,24.75
2018-08-31T13:27:14.685Z,24.61
2018-08-31T13:29:42.846Z,24.75
2018-08-31T13:32:10.969Z,24.89
2018-08-31T13:34:39.462Z,24.68
2018-08-31T13:37:07.614Z,24.79
2018-08-31T13:39:35.900Z,24.92
2018-08-31T13:42:04.043Z,24.75
2018-08-31T13:44:33.189Z,24.53
2018-08-31T13:47:01.388Z,24.44
2018-08-31T13:49:29.499Z,24.94
2018-08-31T13:51:59.084Z,24.95
2018-08-31T13:54:27.255Z,24.93
2018-08-31T13:56:55.448Z,25.13
2018-08-31T13:59:23.584Z,25.61
2018-08-31T14:01:51.645Z,26.26
2018-08-31T14:04:19.863Z,27.88
2018-08-31T14:06:47.970Z,31.91
2018-08-31T14:09:16.175Z,31.93
2018-08-31T14:11:44.398Z,32.77
2018-08-31T14:14:12.914Z,34.17
2018-08-31T14:16:41.012Z,38.08
2018-08-31T14:19:09.930Z,40.45
2018-08-31T14:21:38.658Z,40.84
2018-08-31T14:24:07.278Z,40.81
2018-08-31T14:26:35.438Z,33.99
2018-08-31T14:29:03.632Z,32.17
2018-08-31T14:31:31.860Z,34.71
2018-08-31T14:33:59.992Z,36.82
2018-08-31T14:36:28.137Z,38.08
2018-08-31T14:38:56.357Z,34.14
2018-08-31T14:41:24.805Z,31.11
2018-08-31T14:43:53.062Z,30.38
2018-08-31T14:46:21.293Z,30.32
2018-08-31T14:48:49.409Z,30.53
2018-08-31T14:51:17.535Z,31.50
2018-08-31T14:53:45.729Z,29.68
2018-08-31T14:56:13.887Z,29.00
2018-08-31T14:58:42.450Z,28.29
2018-08-31T15:01:10.492Z,27.96
2018-08-31T15:03:38.599Z,27.54
2018-08-31T15:06:06.751Z,27.30
2018-08-31T15:08:35.016Z,27.35
2018-08-31T15:15:55.782Z,27.32
2018-08-31T15:18:23.907Z,26.94
2018-08-31T15:20:52.132Z,27.01
2018-08-31T15:23:20.356Z,26.87
2018-08-31T15:25:48.670Z,27.07
2018-08-31T15:28:17.034Z,27.30
2018-08-31T15:30:45.174Z,27.90
2018-08-31T15:33:13.345Z,32.24
2018-08-31T15:35:41.500Z,32.06
2018-08-31T15:38:09.685Z,31.19
2018-08-31T15:40:38.043Z,31.53
2018-08-31T15:43:06.244Z,29.42
2018-08-31T15:45:34.565Z,29.02
2018-08-31T15:48:03.689Z,32.69
2018-08-31T15:50:31.890Z,33.82
2018-08-31T15:53:00.113Z,31.39
2018-08-31T15:55:28.445Z,34.45
2018-08-31T15:57:56.560Z,34.81
2018-08-31T16:00:24.704Z,34.79
2018-08-31T16:02:52.789Z,34.22
2018-08-31T16:05:20.902Z,30.04
2018-08-31T16:07:49.458Z,28.75
2018-08-31T16:10:17.736Z,28.14
2018-08-31T16:12:45.850Z,27.47
2018-08-31T16:15:14.169Z,27.00
2018-08-31T16:17:42.262Z,26.93
2018-08-31T16:20:10.506Z,26.64
2018-08-31T16:22:38.770Z,26.52
2018-08-31T16:25:06.863Z,26.54
2018-08-31T16:27:34.987Z,26.30
2018-08-31T16:30:04.975Z,26.27
2018-08-31T16:34:37.107Z,26.19
2018-08-31T16:37:05.176Z,25.97
2018-08-31T16:39:34.821Z,25.54
2018-08-31T16:42:06.698Z,25.65
2018-08-31T16:44:34.772Z,25.53
2018-08-31T16:47:03.799Z,25.59
2018-08-31T16:49:31.895Z,25.59
2018-08-31T16:52:00.052Z,25.52
2018-08-31T16:54:28.367Z,25.05
2018-08-31T16:56:56.431Z,24.77
2018-08-31T16:59:25.215Z,25.18
2018-08-31T17:01:53.462Z,25.02
2018-08-31T17:04:21.743Z,25.14
2018-08-31T17:06:49.890Z,24.98
2018-08-31T17:09:18.880Z,25.07
2018-08-31T17:11:47.180Z,25.03
2018-08-31T17:14:15.332Z,24.70
2018-08-31T17:16:43.548Z,24.73
2018-08-31T17:19:11.635Z,24.44
2018-08-31T17:21:40.762Z,24.31
2018-08-31T17:24:08.934Z,24.38
2018-08-31T17:26:42.423Z,24.33
2018-08-31T17:29:15.912Z,24.37
2018-08-31T17:31:49.455Z,24.27
2018-08-31T17:34:22.869Z,24.20
2018-08-31T17:36:56.332Z,24.14
2018-08-31T17:39:24.498Z,24.06
2018-08-31T17:41:52.728Z,24.02
2018-08-31T17:44:20.851Z,23.86
2018-08-31T17:46:48.978Z,23.93
2018-08-31T17:49:17.206Z,23.93
2018-08-31T17:51:45.323Z,23.82
2018-08-31T17:54:13.419Z,23.86
2018-08-31T17:56:41.528Z,23.76
2018-08-31T17:59:09.704Z,23.73
2018-08-31T18:01:37.834Z,23.70
2018-08-31T18:04:06.060Z,23.78
2018-08-31T18:06:40.093Z,23.65
2018-08-31T18:09:14.356Z,23.54
2018-08-31T18:11:42.518Z,23.55
2018-08-31T18:14:10.602Z,23.55
2018-08-31T18:16:39.211Z,23.44
2018-08-31T18:19:07.202Z,23.38
2018-08-31T18:21:35.646Z,23.30
2018-08-31T18:24:04.088Z,23.25
2018-08-31T18:26:32.555Z,22.98
2018-08-31T18:29:01.226Z,22.91
2018-08-31T18:31:29.317Z,22.94
2018-08-31T18:33:57.423Z,22.97
2018-08-31T18:36:25.693Z,22.98
2018-08-31T18:38:54.141Z,22.85
2018-08-31T18:41:22.403Z,22.81
2018-08-31T18:43:50.528Z,22.76
2018-08-31T18:46:18.724Z,22.68
2018-08-31T18:48:46.851Z,22.63
2018-08-31T18:51:14.987Z,22.57
2018-08-31T18:53:43.070Z,22.34
2018-08-31T18:56:11.199Z,22.42
2018-08-31T19:01:06.722Z,22.43
2018-08-31T19:03:34.862Z,22.50
2018-08-31T19:06:03.122Z,22.47
2018-08-31T19:08:31.364Z,22.46
2018-08-31T19:10:59.498Z,22.42
2018-08-31T19:13:28.364Z,22.30
2018-08-31T19:15:56.562Z,22.46
2018-08-31T19:18:24.736Z,22.34
2018-08-31T19:20:52.810Z,22.41
2018-08-31T19:23:20.895Z,22.24
2018-08-31T19:25:49.004Z,22.12
2018-08-31T19:28:17.127Z,22.15
2018-08-31T19:30:45.251Z,22.17
2018-08-31T19:33:13.375Z,22.03
2018-08-31T19:35:41.489Z,22.06
2018-08-31T19:38:09.602Z,22.10
2018-08-31T19:40:37.765Z,22.14
2018-08-31T19:43:05.913Z,22.20
2018-08-31T19:45:36.165Z,21.99
2018-08-31T19:48:04.863Z,22.02
2018-08-31T19:50:32.957Z,22.01
2018-08-31T19:53:01.095Z,21.99
2018-08-31T19:55:29.239Z,22.02
2018-08-31T19:57:57.307Z,21.93
2018-08-31T20:00:25.474Z,21.93
2018-08-31T20:02:54.104Z,21.90
2018-08-31T20:05:22.351Z,21.93
2018-08-31T20:07:50.757Z,21.75
2018-08-31T20:10:18.869Z,21.85
2018-08-31T20:12:47.046Z,21.78
2018-08-31T20:15:15.177Z,21.70
2018-08-31T20:17:43.316Z,21.74
2018-08-31T20:20:11.383Z,21.75
2018-08-31T20:22:39.581Z,21.83
2018-08-31T20:25:07.762Z,21.71
2018-08-31T20:27:35.985Z,21.76
2018-08-31T20:30:04.720Z,21.68
2018-08-31T20:32:32.859Z,21.75
2018-08-31T20:35:00.979Z,21.67
2018-08-31T20:37:29.113Z,21.64
2018-08-31T20:39:57.380Z,21.45
2018-08-31T20:42:25.487Z,21.50
2018-08-31T20:44:53.624Z,21.40
2018-08-31T20:47:21.791Z,21.50
2018-08-31T20:49:49.819Z,21.52
2018-08-31T20:52:18.471Z,21.55
2018-08-31T20:54:46.638Z,21.50
2018-08-31T20:57:14.949Z,21.34
2018-08-31T20:59:43.078Z,21.34
2018-08-31T21:02:11.241Z,21.38
2018-08-31T21:04:39.347Z,21.25
2018-08-31T21:07:07.452Z,21.36
2018-08-31T21:09:35.620Z,21.23
2018-08-31T21:12:03.727Z,21.24
2018-08-31T21:14:32.855Z,21.21
2018-08-31T21:17:00.963Z,21.22
2018-08-31T21:19:29.078Z,21.24
2018-08-31T21:21:57.170Z,21.08
2018-08-31T21:24:25.267Z,21.03
2018-08-31T21:26:53.435Z,20.95
2018-08-31T21:29:21.543Z,20.95
2018-08-31T21:31:49.672Z,20.90
2018-08-31T21:34:17.779Z,20.95
2018-08-31T21:36:45.884Z,20.96
2018-08-31T21:39:13.967Z,20.87
2018-08-31T21:41:42.202Z,20.83
2018-08-31T21:44:10.559Z,20.81
2018-08-31T21:46:38.710Z,20.74
2018-08-31T21:49:07.109Z,20.71
2018-08-31T21:51:35.535Z,20.70
2018-08-31T21:54:03.606Z,20.58
2018-08-31T21:56:31.700Z,20.41
2018-08-31T21:58:59.897Z,20.44
2018-08-31T22:01:33.399Z,20.38
2018-08-31T22:04:01.508Z,20.33
2018-08-31T22:06:29.814Z,20.33
2018-08-31T22:08:58.016Z,20.19
2018-08-31T22:11:26.108Z,20.19
2018-08-31T22:13:54.267Z,20.15
2018-08-31T22:16:22.378Z,20.12
2018-08-31T22:18:50.810Z,20.05
2018-08-31T22:21:18.944Z,19.96
2018-08-31T22:23:47.109Z,19.93
2018-08-31T22:26:15.204Z,19.93
2018-08-31T22:28:43.363Z,19.82
2018-08-31T22:31:11.526Z,19.79
2018-08-31T22:33:39.652Z,19.69
2018-08-31T22:36:07.752Z,19.63
2018-08-31T22:38:35.842Z,19.63
2018-08-31T22:41:03.935Z,19.62
2018-08-31T22:43:37.473Z,19.57
2018-08-31T22:46:05.556Z,19.57
2018-08-31T22:48:33.806Z,19.50
2018-08-31T22:51:01.908Z,19.47
2018-08-31T22:53:30.057Z,19.49
2018-08-31T22:55:58.162Z,19.42
2018-08-31T22:58:26.259Z,19.44
2018-08-31T23:00:54.376Z,19.34
2018-08-31T23:03:22.476Z,19.32
2018-08-31T23:05:50.587Z,19.23
2018-08-31T23:08:18.704Z,19.20
2018-08-31T23:10:46.862Z,19.09
2018-08-31T23:13:14.984Z,19.15
2018-08-31T23:15:43.164Z,19.01
2018-08-31T23:18:11.267Z,18.93
2018-08-31T23:20:39.893Z,19.05
2018-08-31T23:23:13.417Z,18.94
2018-08-31T23:25:47.202Z,18.93
2018-08-31T23:28:15.605Z,18.88
2018-08-31T23:30:43.757Z,18.94
2018-08-31T23:33:12.177Z,18.88
2018-08-31T23:35:40.543Z,18.84
2018-08-31T23:38:08.647Z,18.84
2018-08-31T23:40:36.816Z,18.81
2018-08-31T23:43:06.375Z,18.80
2018-08-31T23:45:34.562Z,18.70
2018-08-31T23:48:02.860Z,18.63
2018-08-31T23:50:31.132Z,18.60
2018-08-31T23:52:59.246Z,18.58
2018-08-31T23:55:27.472Z,18.54
2018-08-31T23:57:55.578Z,18.53
